map of DKA home
DKA - Airport
Location
City:  Katsina, Katsina, Nigeria
Name:Katsina Airport
Old (Alt.):Umaru Musa Yar'adua Airport
ICAO:DNKT
IATA:DKA

Details
Type:Airport (Aerodrome, Airfield)
Latitude:1300'28"N (13.007831)
Longitude:739'38"E (7.660450)
Datum:WGS 1984
Elevation:1660 ft (506 m)
Variation:0.05W (WMM2015 magnetic declination)
0.09 annual change
Runways:1
Longest:9947 × 98 ft (3032 × 30 m), paved

Time
Time Zone:UTC+1
Local Time:

Weather
METAR:DNKT 220900Z 05010KT CAVOK 33/14 Q1015
TAF:DNKT 211530Z 2118/2224 09010KT CAVOK

Related Locations
Nearby:
Farthest:AAU: 12396 mi / 19949 km
Asau, WS

Find:

   beyond  
but within

Other Information
Maps:
NOTAMs:
Links:
Sources:

  
  • flag of Nigeria
  

Sectional Chart

Flight Planning
at skyvector.com

Satellite Image

Google Maps Satellite view

 

Copyright © 2004-2018 Karl L. Swartz. All rights reserved.
The Great Circle Mapper name and logo are trademarks of the Great Circle Mapper.
All other trademarks mentioned herein belong to their respective owners.
Please see credits for attibutions and further copyright information.

  Follow gcmap on Facebook Follow gcmap on Twitter Follow gcmap on Google+ GCmap on LinkedIn

hCard Microformat

Geo Microformat